sensor_id;sensor_type;location;lat;lon;timestamp;temperature;humidity
21355;DHT22;10835;50.148;19.760;2023-05-07T00:01:25;26.00;48.10
21355;DHT22;10835;50.148;19.760;2023-05-07T00:03:53;26.00;48.30
21355;DHT22;10835;50.148;19.760;2023-05-07T00:06:23;25.80;47.70
21355;DHT22;10835;50.148;19.760;2023-05-07T00:08:52;25.70;48.10
21355;DHT22;10835;50.148;19.760;2023-05-07T00:11:22;25.50;48.50
21355;DHT22;10835;50.148;19.760;2023-05-07T00:13:51;25.30;48.30
21355;DHT22;10835;50.148;19.760;2023-05-07T00:16:19;25.50;48.20
21355;DHT22;10835;50.148;19.760;2023-05-07T00:18:47;25.40;48.30
21355;DHT22;10835;50.148;19.760;2023-05-07T00:21:16;25.30;47.90
21355;DHT22;10835;50.148;19.760;2023-05-07T00:23:45;24.90;48.40
21355;DHT22;10835;50.148;19.760;2023-05-07T00:26:14;25.30;48.70
21355;DHT22;10835;50.148;19.760;2023-05-07T00:28:43;25.20;48.50
21355;DHT22;10835;50.148;19.760;2023-05-07T00:31:12;25.10;48.60
21355;DHT22;10835;50.148;19.760;2023-05-07T00:33:40;25.40;48.70
21355;DHT22;10835;50.148;19.760;2023-05-07T00:36:08;25.10;48.00
21355;DHT22;10835;50.148;19.760;2023-05-07T00:38:37;25.30;48.20
21355;DHT22;10835;50.148;19.760;2023-05-07T00:41:06;25.40;48.20
21355;DHT22;10835;50.148;19.760;2023-05-07T00:43:34;25.40;48.20
21355;DHT22;10835;50.148;19.760;2023-05-07T00:46:03;25.50;48.10
21355;DHT22;10835;50.148;19.760;2023-05-07T00:48:32;25.30;48.10
21355;DHT22;10835;50.148;19.760;2023-05-07T00:51:00;25.40;48.30
21355;DHT22;10835;50.148;19.760;2023-05-07T00:53:29;25.50;48.00
21355;DHT22;10835;50.148;19.760;2023-05-07T00:55:58;25.50;48.20
21355;DHT22;10835;50.148;19.760;2023-05-07T00:58:29;25.80;47.80
21355;DHT22;10835;50.148;19.760;2023-05-07T01:00:58;25.80;47.50
21355;DHT22;10835;50.148;19.760;2023-05-07T01:03:26;25.80;47.50
21355;DHT22;10835;50.148;19.760;2023-05-07T01:05:55;26.00;47.20
21355;DHT22;10835;50.148;19.760;2023-05-07T01:08:25;25.90;47.30
21355;DHT22;10835;50.148;19.760;2023-05-07T01:10:56;25.90;48.00
21355;DHT22;10835;50.148;19.760;2023-05-07T01:13:25;25.90;47.40
21355;DHT22;10835;50.148;19.760;2023-05-07T01:15:54;26.10;47.00
21355;DHT22;10835;50.148;19.760;2023-05-07T01:18:23;26.10;46.60
21355;DHT22;10835;50.148;19.760;2023-05-07T01:20:52;26.10;46.70
21355;DHT22;10835;50.148;19.760;2023-05-07T01:23:24;26.20;46.70
21355;DHT22;10835;50.148;19.760;2023-05-07T01:25:52;25.80;46.30
21355;DHT22;10835;50.148;19.760;2023-05-07T01:28:23;26.00;46.80
21355;DHT22;10835;50.148;19.760;2023-05-07T01:31:00;25.50;46.40
21355;DHT22;10835;50.148;19.760;2023-05-07T01:33:31;25.20;46.80
21355;DHT22;10835;50.148;19.760;2023-05-07T01:36:00;25.20;47.20
21355;DHT22;10835;50.148;19.760;2023-05-07T01:38:32;25.30;46.80
21355;DHT22;10835;50.148;19.760;2023-05-07T01:41:01;25.10;47.00
21355;DHT22;10835;50.148;19.760;2023-05-07T01:43:30;25.00;47.30
21355;DHT22;10835;50.148;19.760;2023-05-07T01:45:59;24.50;48.10
21355;DHT22;10835;50.148;19.760;2023-05-07T01:48:28;24.70;48.20
21355;DHT22;10835;50.148;19.760;2023-05-07T01:50:56;24.40;48.10
21355;DHT22;10835;50.148;19.760;2023-05-07T01:53:27;24.30;48.50
21355;DHT22;10835;50.148;19.760;2023-05-07T01:55:56;24.10;48.10
21355;DHT22;10835;50.148;19.760;2023-05-07T01:58:25;24.20;48.70
21355;DHT22;10835;50.148;19.760;2023-05-07T02:00:53;24.50;48.70
21355;DHT22;10835;50.148;19.760;2023-05-07T02:03:21;24.40;48.60
21355;DHT22;10835;50.148;19.760;2023-05-07T02:05:58;24.20;48.20
21355;DHT22;10835;50.148;19.760;2023-05-07T02:08:32;24.20;48.20
21355;DHT22;10835;50.148;19.760;2023-05-07T02:11:01;24.30;48.30
21355;DHT22;10835;50.148;19.760;2023-05-07T02:13:32;24.20;48.00
21355;DHT22;10835;50.148;19.760;2023-05-07T02:16:01;24.60;47.70
21355;DHT22;10835;50.148;19.760;2023-05-07T02:18:29;24.30;47.50
21355;DHT22;10835;50.148;19.760;2023-05-07T02:20:58;24.30;48.20
21355;DHT22;10835;50.148;19.760;2023-05-07T02:23:26;24.30;48.20
21355;DHT22;10835;50.148;19.760;2023-05-07T02:25:55;24.40;48.00
21355;DHT22;10835;50.148;19.760;2023-05-07T02:28:24;24.60;48.30
21355;DHT22;10835;50.148;19.760;2023-05-07T02:31:04;24.30;47.60
21355;DHT22;10835;50.148;19.760;2023-05-07T02:33:33;24.60;47.80
21355;DHT22;10835;50.148;19.760;2023-05-07T02:36:07;24.90;47.60
21355;DHT22;10835;50.148;19.760;2023-05-07T02:38:39;25.00;47.20
21355;DHT22;10835;50.148;19.760;2023-05-07T02:41:07;25.30;46.60
21355;DHT22;10835;50.148;19.760;2023-05-07T02:43:37;25.50;46.10
21355;DHT22;10835;50.148;19.760;2023-05-07T02:46:06;25.60;45.90
21355;DHT22;10835;50.148;19.760;2023-05-07T02:48:39;25.50;46.10
21355;DHT22;10835;50.148;19.760;2023-05-07T02:51:07;25.70;46.20
21355;DHT22;10835;50.148;19.760;2023-05-07T02:53:38;25.70;45.40
21355;DHT22;10835;50.148;19.760;2023-05-07T02:56:06;25.90;45.00
21355;DHT22;10835;50.148;19.760;2023-05-07T02:58:35;26.00;44.50
21355;DHT22;10835;50.148;19.760;2023-05-07T03:01:05;26.00;44.30
21355;DHT22;10835;50.148;19.760;2023-05-07T03:03:48;26.10;44.30
21355;DHT22;10835;50.148;19.760;2023-05-07T03:06:17;26.10;44.40
21355;DHT22;10835;50.148;19.760;2023-05-07T03:08:45;26.10;44.00
21355;DHT22;10835;50.148;19.760;2023-05-07T03:11:13;26.00;44.20
21355;DHT22;10835;50.148;19.760;2023-05-07T03:13:41;25.90;44.50
21355;DHT22;10835;50.148;19.760;2023-05-07T03:16:11;25.80;43.90
21355;DHT22;10835;50.148;19.760;2023-05-07T03:18:39;25.80;44.50
21355;DHT22;10835;50.148;19.760;2023-05-07T03:21:08;25.20;44.20
21355;DHT22;10835;50.148;19.760;2023-05-07T03:23:36;25.20;45.30
21355;DHT22;10835;50.148;19.760;2023-05-07T03:26:04;25.20;44.60
21355;DHT22;10835;50.148;19.760;2023-05-07T03:28:32;24.50;45.20
21355;DHT22;10835;50.148;19.760;2023-05-07T03:31:04;24.90;45.40
21355;DHT22;10835;50.148;19.760;2023-05-07T03:33:34;25.10;45.60
21355;DHT22;10835;50.148;19.760;2023-05-07T03:36:03;25.20;45.60
21355;DHT22;10835;50.148;19.760;2023-05-07T03:38:32;24.70;44.90
21355;DHT22;10835;50.148;19.760;2023-05-07T03:41:01;24.90;44.80
21355;DHT22;10835;50.148;19.760;2023-05-07T03:43:30;24.80;45.10
21355;DHT22;10835;50.148;19.760;2023-05-07T03:46:04;25.00;45.30
21355;DHT22;10835;50.148;19.760;2023-05-07T03:48:34;24.60;45.50
21355;DHT22;10835;50.148;19.760;2023-05-07T03:51:02;24.80;45.70
21355;DHT22;10835;50.148;19.760;2023-05-07T03:53:32;25.00;45.20
21355;DHT22;10835;50.148;19.760;2023-05-07T03:56:01;25.10;44.90
21355;DHT22;10835;50.148;19.760;2023-05-07T03:58:33;25.30;44.90
21355;DHT22;10835;50.148;19.760;2023-05-07T04:01:06;25.30;44.50
21355;DHT22;10835;50.148;19.760;2023-05-07T04:03:36;25.40;44.40
21355;DHT22;10835;50.148;19.760;2023-05-07T04:06:06;25.40;44.50
21355;DHT22;10835;50.148;19.760;2023-05-07T04:08:36;25.50;44.40
21355;DHT22;10835;50.148;19.760;2023-05-07T04:11:05;25.40;44.10
21355;DHT22;10835;50.148;19.760;2023-05-07T04:13:36;25.40;44.20
21355;DHT22;10835;50.148;19.760;2023-05-07T04:16:06;25.40;44.10
21355;DHT22;10835;50.148;19.760;2023-05-07T04:18:38;25.40;44.10
21355;DHT22;10835;50.148;19.760;2023-05-07T04:21:14;25.40;44.20
21355;DHT22;10835;50.148;19.760;2023-05-07T04:23:43;25.20;44.20
21355;DHT22;10835;50.148;19.760;2023-05-07T04:26:13;25.30;44.30
21355;DHT22;10835;50.148;19.760;2023-05-07T04:28:43;25.00;44.10
21355;DHT22;10835;50.148;19.760;2023-05-07T04:31:15;25.10;44.60
21355;DHT22;10835;50.148;19.760;2023-05-07T04:33:47;25.10;44.30
21355;DHT22;10835;50.148;19.760;2023-05-07T04:36:15;25.30;44.10
21355;DHT22;10835;50.148;19.760;2023-05-07T04:38:49;24.80;44.00
21355;DHT22;10835;50.148;19.760;2023-05-07T04:41:19;23.90;45.00
21355;DHT22;10835;50.148;19.760;2023-05-07T04:43:48;24.40;45.70
21355;DHT22;10835;50.148;19.760;2023-05-07T04:46:17;24.70;45.50
21355;DHT22;10835;50.148;19.760;2023-05-07T04:48:49;24.80;45.60
21355;DHT22;10835;50.148;19.760;2023-05-07T04:51:17;24.90;45.20
21355;DHT22;10835;50.148;19.760;2023-05-07T04:53:45;25.00;44.90
21355;DHT22;10835;50.148;19.760;2023-05-07T04:56:14;25.10;44.70
21355;DHT22;10835;50.148;19.760;2023-05-07T04:58:44;25.00;44.80
21355;DHT22;10835;50.148;19.760;2023-05-07T05:01:14;25.10;45.30
21355;DHT22;10835;50.148;19.760;2023-05-07T05:03:43;25.20;44.70
21355;DHT22;10835;50.148;19.760;2023-05-07T05:06:14;25.30;44.30
21355;DHT22;10835;50.148;19.760;2023-05-07T05:08:42;25.30;44.00
21355;DHT22;10835;50.148;19.760;2023-05-07T05:11:10;25.10;44.00
21355;DHT22;10835;50.148;19.760;2023-05-07T05:13:39;25.20;44.20
21355;DHT22;10835;50.148;19.760;2023-05-07T05:16:15;25.20;43.90
21355;DHT22;10835;50.148;19.760;2023-05-07T05:18:44;25.20;44.00
21355;DHT22;10835;50.148;19.760;2023-05-07T05:21:15;25.30;43.80
21355;DHT22;10835;50.148;19.760;2023-05-07T05:23:46;25.40;43.80
21355;DHT22;10835;50.148;19.760;2023-05-07T05:26:19;25.30;43.80
21355;DHT22;10835;50.148;19.760;2023-05-07T05:28:48;25.30;43.70
21355;DHT22;10835;50.148;19.760;2023-05-07T05:31:19;25.10;43.50
21355;DHT22;10835;50.148;19.760;2023-05-07T05:33:49;24.90;43.90
21355;DHT22;10835;50.148;19.760;2023-05-07T05:36:19;24.70;44.00
21355;DHT22;10835;50.148;19.760;2023-05-07T05:38:49;24.40;44.40
21355;DHT22;10835;50.148;19.760;2023-05-07T05:41:18;24.40;44.40
21355;DHT22;10835;50.148;19.760;2023-05-07T05:43:48;24.10;44.90
21355;DHT22;10835;50.148;19.760;2023-05-07T05:46:16;24.00;44.80
21355;DHT22;10835;50.148;19.760;2023-05-07T05:48:46;24.10;45.10
21355;DHT22;10835;50.148;19.760;2023-05-07T05:51:14;24.20;45.20
21355;DHT22;10835;50.148;19.760;2023-05-07T05:53:44;24.30;44.90
21355;DHT22;10835;50.148;19.760;2023-05-07T05:56:12;24.20;44.50
21355;DHT22;10835;50.148;19.760;2023-05-07T05:58:41;24.30;44.50
21355;DHT22;10835;50.148;19.760;2023-05-07T06:01:09;24.20;44.60
21355;DHT22;10835;50.148;19.760;2023-05-07T06:03:38;24.20;45.50
21355;DHT22;10835;50.148;19.760;2023-05-07T06:06:12;24.40;44.00
21355;DHT22;10835;50.148;19.760;2023-05-07T06:08:44;24.30;44.70
21355;DHT22;10835;50.148;19.760;2023-05-07T06:11:17;24.20;44.50
21355;DHT22;10835;50.148;19.760;2023-05-07T06:13:46;24.10;44.70
21355;DHT22;10835;50.148;19.760;2023-05-07T06:16:15;24.20;44.80
21355;DHT22;10835;50.148;19.760;2023-05-07T06:18:44;24.20;44.10
21355;DHT22;10835;50.148;19.760;2023-05-07T06:21:14;24.30;44.30
21355;DHT22;10835;50.148;19.760;2023-05-07T06:23:44;24.40;44.20
21355;DHT22;10835;50.148;19.760;2023-05-07T06:26:13;24.50;43.90
21355;DHT22;10835;50.148;19.760;2023-05-07T06:28:45;24.00;44.30
21355;DHT22;10835;50.148;19.760;2023-05-07T06:31:17;24.00;44.60
21355;DHT22;10835;50.148;19.760;2023-05-07T06:33:54;23.90;44.30
21355;DHT22;10835;50.148;19.760;2023-05-07T06:36:29;23.80;44.80
21355;DHT22;10835;50.148;19.760;2023-05-07T06:39:05;23.90;44.60
21355;DHT22;10835;50.148;19.760;2023-05-07T06:41:33;23.90;45.30
21355;DHT22;10835;50.148;19.760;2023-05-07T06:44:07;24.00;45.00
21355;DHT22;10835;50.148;19.760;2023-05-07T06:46:43;24.30;44.50
21355;DHT22;10835;50.148;19.760;2023-05-07T06:49:13;24.40;43.80
21355;DHT22;10835;50.148;19.760;2023-05-07T06:51:45;24.50;43.90
21355;DHT22;10835;50.148;19.760;2023-05-07T06:54:15;24.70;43.20
21355;DHT22;10835;50.148;19.760;2023-05-07T06:56:43;24.10;44.30
21355;DHT22;10835;50.148;19.760;2023-05-07T06:59:12;24.30;44.10
21355;DHT22;10835;50.148;19.760;2023-05-07T07:01:41;24.30;44.20
21355;DHT22;10835;50.148;19.760;2023-05-07T07:04:10;24.40;44.10
21355;DHT22;10835;50.148;19.760;2023-05-07T07:06:41;24.40;43.50
21355;DHT22;10835;50.148;19.760;2023-05-07T07:09:12;24.40;43.50
21355;DHT22;10835;50.148;19.760;2023-05-07T07:11:42;24.10;43.80
21355;DHT22;10835;50.148;19.760;2023-05-07T07:14:10;23.90;44.20
21355;DHT22;10835;50.148;19.760;2023-05-07T07:16:45;23.80;44.40
21355;DHT22;10835;50.148;19.760;2023-05-07T07:19:14;23.90;44.50
21355;DHT22;10835;50.148;19.760;2023-05-07T07:21:43;23.70;44.30
21355;DHT22;10835;50.148;19.760;2023-05-07T07:24:13;23.60;44.60
21355;DHT22;10835;50.148;19.760;2023-05-07T07:26:48;23.30;44.80
21355;DHT22;10835;50.148;19.760;2023-05-07T07:29:18;23.60;44.80
21355;DHT22;10835;50.148;19.760;2023-05-07T07:31:48;23.70;45.00
21355;DHT22;10835;50.148;19.760;2023-05-07T07:34:18;23.90;45.00
21355;DHT22;10835;50.148;19.760;2023-05-07T07:36:47;23.60;45.40
21355;DHT22;10835;50.148;19.760;2023-05-07T07:39:18;23.50;44.40
21355;DHT22;10835;50.148;19.760;2023-05-07T07:41:50;23.70;44.60
21355;DHT22;10835;50.148;19.760;2023-05-07T07:44:21;23.20;44.70
21355;DHT22;10835;50.148;19.760;2023-05-07T07:46:54;23.70;46.60
21355;DHT22;10835;50.148;19.760;2023-05-07T07:49:25;23.60;44.50
21355;DHT22;10835;50.148;19.760;2023-05-07T07:51:54;23.80;44.50
21355;DHT22;10835;50.148;19.760;2023-05-07T07:54:23;23.90;44.40
21355;DHT22;10835;50.148;19.760;2023-05-07T07:56:54;24.20;43.90
21355;DHT22;10835;50.148;19.760;2023-05-07T07:59:24;24.00;43.60
21355;DHT22;10835;50.148;19.760;2023-05-07T08:01:52;24.00;43.60
21355;DHT22;10835;50.148;19.760;2023-05-07T08:04:24;23.60;43.60
21355;DHT22;10835;50.148;19.760;2023-05-07T08:06:54;23.60;43.80
21355;DHT22;10835;50.148;19.760;2023-05-07T08:09:23;23.60;43.90
21355;DHT22;10835;50.148;19.760;2023-05-07T08:11:54;23.70;44.20
21355;DHT22;10835;50.148;19.760;2023-05-07T08:14:23;23.80;44.20
21355;DHT22;10835;50.148;19.760;2023-05-07T08:16:51;23.80;44.10
21355;DHT22;10835;50.148;19.760;2023-05-07T08:19:20;23.80;44.20
21355;DHT22;10835;50.148;19.760;2023-05-07T08:21:51;23.60;44.20
21355;DHT22;10835;50.148;19.760;2023-05-07T08:24:21;23.90;43.90
21355;DHT22;10835;50.148;19.760;2023-05-07T08:26:50;23.60;44.20
21355;DHT22;10835;50.148;19.760;2023-05-07T08:29:20;23.70;44.70
21355;DHT22;10835;50.148;19.760;2023-05-07T08:31:48;23.80;44.80
21355;DHT22;10835;50.148;19.760;2023-05-07T08:34:17;23.60;44.60
21355;DHT22;10835;50.148;19.760;2023-05-07T08:36:47;23.80;44.50
21355;DHT22;10835;50.148;19.760;2023-05-07T08:39:18;23.90;44.20
21355;DHT22;10835;50.148;19.760;2023-05-07T08:41:51;23.70;44.00
21355;DHT22;10835;50.148;19.760;2023-05-07T08:44:26;23.90;44.20
21355;DHT22;10835;50.148;19.760;2023-05-07T08:46:56;24.00;44.50
21355;DHT22;10835;50.148;19.760;2023-05-07T08:49:27;24.20;44.60
21355;DHT22;10835;50.148;19.760;2023-05-07T08:51:55;24.30;44.20
21355;DHT22;10835;50.148;19.760;2023-05-07T08:54:25;24.50;43.90
21355;DHT22;10835;50.148;19.760;2023-05-07T08:56:58;24.20;43.20
21355;DHT22;10835;50.148;19.760;2023-05-07T08:59:28;24.20;43.60
21355;DHT22;10835;50.148;19.760;2023-05-07T09:01:56;24.20;43.80
21355;DHT22;10835;50.148;19.760;2023-05-07T09:04:25;24.20;43.30
21355;DHT22;10835;50.148;19.760;2023-05-07T09:06:54;24.20;44.00
21355;DHT22;10835;50.148;19.760;2023-05-07T09:09:23;24.10;43.60
21355;DHT22;10835;50.148;19.760;2023-05-07T09:11:57;23.90;44.10
21355;DHT22;10835;50.148;19.760;2023-05-07T09:14:29;24.00;44.20
21355;DHT22;10835;50.148;19.760;2023-05-07T09:16:58;23.90;44.20
21355;DHT22;10835;50.148;19.760;2023-05-07T09:19:27;24.00;44.30
21355;DHT22;10835;50.148;19.760;2023-05-07T09:21:59;24.10;45.00
21355;DHT22;10835;50.148;19.760;2023-05-07T09:24:31;24.00;43.90
21355;DHT22;10835;50.148;19.760;2023-05-07T09:27:04;23.60;43.70
21355;DHT22;10835;50.148;19.760;2023-05-07T09:29:34;23.80;44.80
21355;DHT22;10835;50.148;19.760;2023-05-07T09:32:05;23.70;44.00
21355;DHT22;10835;50.148;19.760;2023-05-07T09:34:35;23.60;44.00
21355;DHT22;10835;50.148;19.760;2023-05-07T09:37:05;23.60;44.40
21355;DHT22;10835;50.148;19.760;2023-05-07T09:39:40;23.60;44.50
21355;DHT22;10835;50.148;19.760;2023-05-07T09:42:10;23.60;44.80
21355;DHT22;10835;50.148;19.760;2023-05-07T09:44:41;23.80;44.60
21355;DHT22;10835;50.148;19.760;2023-05-07T09:47:19;23.80;44.80
21355;DHT22;10835;50.148;19.760;2023-05-07T09:49:56;24.00;44.20
21355;DHT22;10835;50.148;19.760;2023-05-07T09:52:25;24.00;43.90
21355;DHT22;10835;50.148;19.760;2023-05-07T09:54:57;24.10;44.00
21355;DHT22;10835;50.148;19.760;2023-05-07T09:57:29;24.00;43.50
21355;DHT22;10835;50.148;19.760;2023-05-07T10:00:04;24.00;43.50
21355;DHT22;10835;50.148;19.760;2023-05-07T10:02:46;23.70;43.90
21355;DHT22;10835;50.148;19.760;2023-05-07T10:05:23;23.70;44.20
21355;DHT22;10835;50.148;19.760;2023-05-07T10:07:55;23.70;44.50
21355;DHT22;10835;50.148;19.760;2023-05-07T10:10:25;23.50;44.40
21355;DHT22;10835;50.148;19.760;2023-05-07T10:12:54;23.50;44.40
21355;DHT22;10835;50.148;19.760;2023-05-07T10:15:31;23.40;44.60
21355;DHT22;10835;50.148;19.760;2023-05-07T10:18:02;23.70;44.60
21355;DHT22;10835;50.148;19.760;2023-05-07T10:20:33;23.50;45.20
21355;DHT22;10835;50.148;19.760;2023-05-07T10:23:04;23.70;44.30
21355;DHT22;10835;50.148;19.760;2023-05-07T10:25:40;23.70;43.80
21355;DHT22;10835;50.148;19.760;2023-05-07T10:28:18;23.20;44.30
21355;DHT22;10835;50.148;19.760;2023-05-07T10:31:01;23.40;45.10
21355;DHT22;10835;50.148;19.760;2023-05-07T10:33:42;23.60;44.30
21355;DHT22;10835;50.148;19.760;2023-05-07T10:36:12;23.60;44.50
21355;DHT22;10835;50.148;19.760;2023-05-07T10:38:41;23.60;44.30
21355;DHT22;10835;50.148;19.760;2023-05-07T10:41:10;23.60;44.30
21355;DHT22;10835;50.148;19.760;2023-05-07T10:43:42;23.70;44.00
21355;DHT22;10835;50.148;19.760;2023-05-07T10:46:26;23.60;43.60
21355;DHT22;10835;50.148;19.760;2023-05-07T10:49:10;23.40;43.80
21355;DHT22;10835;50.148;19.760;2023-05-07T10:52:10;23.10;44.00
21355;DHT22;10835;50.148;19.760;2023-05-07T10:54:40;23.60;44.70
21355;DHT22;10835;50.148;19.760;2023-05-07T10:57:38;23.90;44.20
21355;DHT22;10835;50.148;19.760;2023-05-07T11:00:42;23.90;43.30
21355;DHT22;10835;50.148;19.760;2023-05-07T11:03:20;23.60;43.50
21355;DHT22;10835;50.148;19.760;2023-05-07T11:06:11;23.40;44.50
21355;DHT22;10835;50.148;19.760;2023-05-07T11:09:03;23.50;43.80
21355;DHT22;10835;50.148;19.760;2023-05-07T11:11:50;23.80;44.00
21355;DHT22;10835;50.148;19.760;2023-05-07T11:14:45;23.80;44.10
21355;DHT22;10835;50.148;19.760;2023-05-07T11:17:32;23.80;43.60
21355;DHT22;10835;50.148;19.760;2023-05-07T11:20:09;23.80;43.70
21355;DHT22;10835;50.148;19.760;2023-05-07T11:22:43;23.90;43.60
21355;DHT22;10835;50.148;19.760;2023-05-07T11:25:30;23.90;43.10
21355;DHT22;10835;50.148;19.760;2023-05-07T11:28:07;23.90;43.40
21355;DHT22;10835;50.148;19.760;2023-05-07T11:30:42;23.50;43.40
21355;DHT22;10835;50.148;19.760;2023-05-07T11:33:17;23.50;43.40
21355;DHT22;10835;50.148;19.760;2023-05-07T11:35:50;23.60;43.50
21355;DHT22;10835;50.148;19.760;2023-05-07T11:38:25;23.60;43.20
21355;DHT22;10835;50.148;19.760;2023-05-07T11:40:55;23.50;44.40
21355;DHT22;10835;50.148;19.760;2023-05-07T11:43:24;23.50;43.40
21355;DHT22;10835;50.148;19.760;2023-05-07T11:45:52;23.90;43.40
21355;DHT22;10835;50.148;19.760;2023-05-07T11:48:23;24.00;43.10
21355;DHT22;10835;50.148;19.760;2023-05-07T11:50:53;24.30;42.70
21355;DHT22;10835;50.148;19.760;2023-05-07T11:53:24;24.40;42.30
21355;DHT22;10835;50.148;19.760;2023-05-07T11:55:53;24.10;41.30
21355;DHT22;10835;50.148;19.760;2023-05-07T11:58:24;23.80;42.30
21355;DHT22;10835;50.148;19.760;2023-05-07T12:00:53;23.90;42.80
21355;DHT22;10835;50.148;19.760;2023-05-07T12:03:21;23.80;42.50
21355;DHT22;10835;50.148;19.760;2023-05-07T12:05:51;23.80;42.70
21355;DHT22;10835;50.148;19.760;2023-05-07T12:08:20;23.80;43.10
21355;DHT22;10835;50.148;19.760;2023-05-07T12:10:50;23.80;42.60
21355;DHT22;10835;50.148;19.760;2023-05-07T12:13:19;23.80;42.20
21355;DHT22;10835;50.148;19.760;2023-05-07T12:15:50;23.90;42.80
21355;DHT22;10835;50.148;19.760;2023-05-07T12:18:36;24.10;42.30
21355;DHT22;10835;50.148;19.760;2023-05-07T12:21:07;23.90;42.60
21355;DHT22;10835;50.148;19.760;2023-05-07T12:23:38;23.70;42.40
21355;DHT22;10835;50.148;19.760;2023-05-07T12:26:06;23.80;43.00
21355;DHT22;10835;50.148;19.760;2023-05-07T12:28:37;23.60;42.80
21355;DHT22;10835;50.148;19.760;2023-05-07T12:31:07;23.80;42.20
21355;DHT22;10835;50.148;19.760;2023-05-07T12:33:36;23.60;42.40
21355;DHT22;10835;50.148;19.760;2023-05-07T12:36:06;23.50;42.50
21355;DHT22;10835;50.148;19.760;2023-05-07T12:38:36;23.90;42.90
21355;DHT22;10835;50.148;19.760;2023-05-07T12:41:06;24.00;42.70
21355;DHT22;10835;50.148;19.760;2023-05-07T12:43:35;23.90;41.80
21355;DHT22;10835;50.148;19.760;2023-05-07T12:46:04;23.70;43.30
21355;DHT22;10835;50.148;19.760;2023-05-07T12:48:33;23.90;42.70
21355;DHT22;10835;50.148;19.760;2023-05-07T12:51:01;24.00;42.70
21355;DHT22;10835;50.148;19.760;2023-05-07T12:53:31;24.00;42.80
21355;DHT22;10835;50.148;19.760;2023-05-07T12:55:59;24.00;42.10
21355;DHT22;10835;50.148;19.760;2023-05-07T12:58:28;23.90;42.50
21355;DHT22;10835;50.148;19.760;2023-05-07T13:00:58;24.20;42.40
21355;DHT22;10835;50.148;19.760;2023-05-07T13:03:28;23.90;42.30
21355;DHT22;10835;50.148;19.760;2023-05-07T13:05:58;23.90;42.50
21355;DHT22;10835;50.148;19.760;2023-05-07T13:08:28;24.10;42.30
21355;DHT22;10835;50.148;19.760;2023-05-07T13:10:59;24.20;41.50
21355;DHT22;10835;50.148;19.760;2023-05-07T13:13:30;24.20;41.20
21355;DHT22;10835;50.148;19.760;2023-05-07T13:15:59;23.90;41.80
21355;DHT22;10835;50.148;19.760;2023-05-07T13:18:30;23.90;42.10
21355;DHT22;10835;50.148;19.760;2023-05-07T13:20:59;23.70;42.20
21355;DHT22;10835;50.148;19.760;2023-05-07T13:23:27;23.70;42.70
21355;DHT22;10835;50.148;19.760;2023-05-07T13:25:56;24.00;41.70
21355;DHT22;10835;50.148;19.760;2023-05-07T13:28:25;24.10;41.90
21355;DHT22;10835;50.148;19.760;2023-05-07T13:30:54;24.00;41.30
21355;DHT22;10835;50.148;19.760;2023-05-07T13:33:22;24.40;40.60
21355;DHT22;10835;50.148;19.760;2023-05-07T13:35:51;24.10;40.80
21355;DHT22;10835;50.148;19.760;2023-05-07T13:38:19;24.30;42.00
21355;DHT22;10835;50.148;19.760;2023-05-07T13:40:50;23.90;41.50
21355;DHT22;10835;50.148;19.760;2023-05-07T13:43:19;23.90;41.60
21355;DHT22;10835;50.148;19.760;2023-05-07T13:45:48;23.30;41.80
21355;DHT22;10835;50.148;19.760;2023-05-07T13:48:17;23.60;41.90
21355;DHT22;10835;50.148;19.760;2023-05-07T13:50:45;23.60;42.20
21355;DHT22;10835;50.148;19.760;2023-05-07T13:53:13;23.70;42.00
21355;DHT22;10835;50.148;19.760;2023-05-07T13:55:44;23.70;41.70
21355;DHT22;10835;50.148;19.760;2023-05-07T13:58:13;23.20;42.30
21355;DHT22;10835;50.148;19.760;2023-05-07T14:00:44;23.20;42.50
21355;DHT22;10835;50.148;19.760;2023-05-07T14:03:14;22.80;43.10
21355;DHT22;10835;50.148;19.760;2023-05-07T14:05:44;22.60;43.00
21355;DHT22;10835;50.148;19.760;2023-05-07T14:08:15;22.90;43.80
21355;DHT22;10835;50.148;19.760;2023-05-07T14:10:46;23.20;43.60
21355;DHT22;10835;50.148;19.760;2023-05-07T14:13:14;23.40;43.30
21355;DHT22;10835;50.148;19.760;2023-05-07T14:15:42;23.50;43.70
21355;DHT22;10835;50.148;19.760;2023-05-07T14:18:14;23.50;42.60
21355;DHT22;10835;50.148;19.760;2023-05-07T14:20:42;23.60;43.30
21355;DHT22;10835;50.148;19.760;2023-05-07T14:23:13;23.90;42.30
21355;DHT22;10835;50.148;19.760;2023-05-07T14:25:41;23.80;42.00
21355;DHT22;10835;50.148;19.760;2023-05-07T14:28:10;23.90;42.00
21355;DHT22;10835;50.148;19.760;2023-05-07T14:30:38;23.70;41.80
21355;DHT22;10835;50.148;19.760;2023-05-07T14:33:06;23.40;42.30
21355;DHT22;10835;50.148;19.760;2023-05-07T14:35:36;23.30;42.10
21355;DHT22;10835;50.148;19.760;2023-05-07T14:38:04;23.30;43.00
21355;DHT22;10835;50.148;19.760;2023-05-07T14:40:32;23.20;43.00
21355;DHT22;10835;50.148;19.760;2023-05-07T14:43:01;23.10;43.20
21355;DHT22;10835;50.148;19.760;2023-05-07T14:45:29;22.70;43.20
21355;DHT22;10835;50.148;19.760;2023-05-07T14:47:57;23.00;43.80
21355;DHT22;10835;50.148;19.760;2023-05-07T14:50:26;22.70;43.50
21355;DHT22;10835;50.148;19.760;2023-05-07T14:52:56;23.20;43.50
21355;DHT22;10835;50.148;19.760;2023-05-07T14:55:24;23.10;43.30
21355;DHT22;10835;50.148;19.760;2023-05-07T14:57:52;23.40;43.50
21355;DHT22;10835;50.148;19.760;2023-05-07T15:00:21;23.60;42.90
21355;DHT22;10835;50.148;19.760;2023-05-07T15:02:49;23.50;42.90
21355;DHT22;10835;50.148;19.760;2023-05-07T15:05:17;23.60;42.60
21355;DHT22;10835;50.148;19.760;2023-05-07T15:07:47;23.80;42.50
21355;DHT22;10835;50.148;19.760;2023-05-07T15:10:17;23.70;42.00
21355;DHT22;10835;50.148;19.760;2023-05-07T15:12:45;23.30;42.90
21355;DHT22;10835;50.148;19.760;2023-05-07T15:15:13;23.10;42.70
21355;DHT22;10835;50.148;19.760;2023-05-07T15:17:45;23.10;43.40
21355;DHT22;10835;50.148;19.760;2023-05-07T15:20:13;22.80;43.30
21355;DHT22;10835;50.148;19.760;2023-05-07T15:22:42;22.50;44.50
21355;DHT22;10835;50.148;19.760;2023-05-07T15:25:10;22.30;44.40
21355;DHT22;10835;50.148;19.760;2023-05-07T15:27:40;22.30;44.80
21355;DHT22;10835;50.148;19.760;2023-05-07T15:30:09;21.70;44.80
21355;DHT22;10835;50.148;19.760;2023-05-07T15:32:40;21.90;45.70
21355;DHT22;10835;50.148;19.760;2023-05-07T15:35:12;21.30;46.00
21355;DHT22;10835;50.148;19.760;2023-05-07T15:37:40;21.50;46.40